createdAt,value
2018-02-08T00:00:21.081Z,30.90
2018-02-08T00:02:48.692Z,26.90
2018-02-08T00:05:16.349Z,31.40
2018-02-08T00:07:43.969Z,30.17
2018-02-08T00:10:12.550Z,33.53
2018-02-08T00:12:40.249Z,33.35
2018-02-08T00:15:07.909Z,32.78
2018-02-08T00:17:35.556Z,25.98
2018-02-08T00:20:03.234Z,29.70
2018-02-08T00:22:42.812Z,27.30
2018-02-08T00:25:11.232Z,31.00
2018-02-08T00:27:38.851Z,30.13
2018-02-08T00:30:08.083Z,40.25
2018-02-08T00:32:35.875Z,38.67
2018-02-08T00:35:03.499Z,26.87
2018-02-08T00:37:31.154Z,26.70
2018-02-08T00:39:58.857Z,33.30
2018-02-08T00:42:26.515Z,33.47
2018-02-08T00:44:54.608Z,35.60
2018-02-08T00:47:22.264Z,29.63
2018-02-08T00:49:50.690Z,33.30
2018-02-08T00:52:18.354Z,39.72
2018-02-08T00:54:46.043Z,36.03
2018-02-08T00:57:13.661Z,33.13
2018-02-08T00:59:41.320Z,32.57
2018-02-08T01:02:09.109Z,29.93
2018-02-08T01:04:36.730Z,31.63
2018-02-08T01:07:04.635Z,34.87
2018-02-08T01:09:32.248Z,29.93
2018-02-08T01:11:59.905Z,40.73
2018-02-08T01:14:27.525Z,33.83
2018-02-08T01:16:55.292Z,34.60
2018-02-08T01:19:24.205Z,32.17
2018-02-08T01:21:53.362Z,31.50
2018-02-08T01:24:21.017Z,34.50
2018-02-08T01:26:48.805Z,36.40
2018-02-08T01:29:16.454Z,33.80
2018-02-08T01:31:44.121Z,31.20
2018-02-08T01:34:11.736Z,32.60
2018-02-08T01:36:40.210Z,32.73
2018-02-08T01:39:07.888Z,29.87
2018-02-08T01:41:36.108Z,28.70
2018-02-08T01:44:04.353Z,36.65
2018-02-08T01:46:32.600Z,37.00
2018-02-08T01:49:00.595Z,28.97
2018-02-08T01:51:28.908Z,32.27
2018-02-08T01:53:56.653Z,35.47
2018-02-08T01:56:24.313Z,47.20
2018-02-08T01:58:51.932Z,28.38
2018-02-08T02:01:20.319Z,32.10
2018-02-08T02:03:48.033Z,30.10
2018-02-08T02:06:15.654Z,38.45
2018-02-08T02:08:43.305Z,25.75
2018-02-08T02:11:11.696Z,29.97
2018-02-08T02:13:39.353Z,30.90
2018-02-08T02:16:07.216Z,32.20
2018-02-08T02:18:34.837Z,28.95
2018-02-08T02:21:02.496Z,27.57
2018-02-08T02:23:30.116Z,30.00
2018-02-08T02:25:57.773Z,35.13
2018-02-08T02:28:25.864Z,28.37
2018-02-08T02:30:53.525Z,29.50
2018-02-08T02:33:21.202Z,25.57
2018-02-08T02:35:49.660Z,27.15
2018-02-08T02:38:17.289Z,31.30
2018-02-08T02:40:45.989Z,29.57
2018-02-08T02:43:13.627Z,25.67
2018-02-08T02:45:41.290Z,27.73
2018-02-08T02:48:08.904Z,27.40
2018-02-08T02:50:37.177Z,33.17
2018-02-08T02:53:04.802Z,33.25
2018-02-08T02:55:32.453Z,30.83
2018-02-08T02:58:00.076Z,27.60
2018-02-08T03:00:27.825Z,33.05
2018-02-08T03:02:56.254Z,29.60
2018-02-08T03:05:23.880Z,32.53
2018-02-08T03:07:51.547Z,30.13
2018-02-08T03:10:20.261Z,34.07
2018-02-08T03:12:47.901Z,31.37
2018-02-08T03:15:15.565Z,27.70
2018-02-08T03:17:43.180Z,30.63
2018-02-08T03:20:10.797Z,26.55
2018-02-08T03:22:38.456Z,33.60
2018-02-08T03:25:06.117Z,27.53
2018-02-08T03:27:33.738Z,28.83
2018-02-08T03:30:01.360Z,31.20
2018-02-08T03:32:29.961Z,28.67
2018-02-08T03:34:59.036Z,30.20
2018-02-08T03:37:27.917Z,26.53
2018-02-08T03:39:55.533Z,26.40
2018-02-08T03:42:23.152Z,31.93
2018-02-08T03:44:51.576Z,26.83
2018-02-08T03:47:19.188Z,26.60
2018-02-08T03:49:47.034Z,32.37
2018-02-08T03:52:15.032Z,29.67
2018-02-08T03:54:42.657Z,30.50
2018-02-08T03:57:10.316Z,32.40
2018-02-08T03:59:38.082Z,32.85
2018-02-08T04:02:05.737Z,33.88
2018-02-08T04:04:33.389Z,35.27
2018-02-08T04:07:01.063Z,30.25
2018-02-08T04:09:28.739Z,28.45
2018-02-08T04:11:56.365Z,32.70
2018-02-08T04:14:24.025Z,29.30
2018-02-08T04:16:51.640Z,30.98
2018-02-08T04:19:19.307Z,30.98
2018-02-08T04:21:47.693Z,28.17
2018-02-08T04:24:15.353Z,27.87
2018-02-08T04:26:42.973Z,29.27
2018-02-08T04:29:10.632Z,26.23
2018-02-08T04:31:38.243Z,29.40
2018-02-08T04:34:05.856Z,28.73
2018-02-08T04:36:34.077Z,28.20
2018-02-08T04:42:11.796Z,26.10
2018-02-08T04:44:51.902Z,28.87
2018-02-08T05:00:49.005Z,25.37
2018-02-08T05:03:16.874Z,25.30
2018-02-08T05:05:44.530Z,22.77
2018-02-08T05:08:12.145Z,34.10
2018-02-08T05:10:39.812Z,27.20
2018-02-08T05:13:07.702Z,21.70
2018-02-08T05:15:35.352Z,25.27
2018-02-08T05:18:02.964Z,23.50
2018-02-08T05:20:30.643Z,35.83
2018-02-08T05:22:59.064Z,26.15
2018-02-08T05:25:26.712Z,29.37
2018-02-08T05:27:54.362Z,29.50
2018-02-08T05:30:22.017Z,24.00
2018-02-08T05:32:50.360Z,24.47
2018-02-08T05:35:17.980Z,25.13
2018-02-08T05:37:45.945Z,24.50
2018-02-08T05:40:13.609Z,25.97
2018-02-08T05:42:41.591Z,23.75
2018-02-08T05:45:09.806Z,32.00
2018-02-08T05:47:38.230Z,26.80
2018-02-08T05:50:05.855Z,23.70
2018-02-08T05:52:33.697Z,29.43
2018-02-08T05:55:02.081Z,28.25
2018-02-08T05:57:30.506Z,28.03
2018-02-08T05:59:58.268Z,27.20
2018-02-08T06:02:25.927Z,27.37
2018-02-08T06:04:53.589Z,24.20
2018-02-08T06:07:21.249Z,28.25
2018-02-08T06:09:48.865Z,23.83
2018-02-08T06:12:16.688Z,23.37
2018-02-08T06:14:44.340Z,28.85
2018-02-08T06:17:12.001Z,17.80
2018-02-08T06:19:40.215Z,27.43
2018-02-08T06:22:08.049Z,22.40
2018-02-08T06:24:35.704Z,22.60
2018-02-08T06:27:03.572Z,26.50
2018-02-08T06:29:31.230Z,22.07
2018-02-08T06:31:59.101Z,22.90
2018-02-08T06:34:26.757Z,28.63
2018-02-08T06:36:54.375Z,22.40
2018-02-08T06:39:22.140Z,25.33
2018-02-08T06:41:49.758Z,21.85
2018-02-08T06:44:17.694Z,24.85
2018-02-08T06:46:45.330Z,21.40
2018-02-08T06:49:13.032Z,23.50
2018-02-08T06:51:40.660Z,26.20
2018-02-08T06:54:08.353Z,23.08
2018-02-08T06:56:35.982Z,24.00
2018-02-08T06:59:03.601Z,26.70
2018-02-08T07:01:32.036Z,28.67
2018-02-08T07:03:59.808Z,27.73
2018-02-08T07:06:27.465Z,27.05
2018-02-08T07:08:55.130Z,27.00
2018-02-08T07:11:23.154Z,25.70
2018-02-08T07:13:50.772Z,30.63
2018-02-08T07:16:18.433Z,30.02
2018-02-08T07:18:46.777Z,19.80
2018-02-08T07:21:14.441Z,31.90
2018-02-08T07:23:42.056Z,22.63
2018-02-08T07:26:09.709Z,23.80
2018-02-08T07:28:38.104Z,27.75
2018-02-08T07:31:05.753Z,32.10
2018-02-08T07:33:33.374Z,28.20
2018-02-08T07:36:01.041Z,26.43
2018-02-08T07:38:28.801Z,23.67
2018-02-08T07:40:56.422Z,25.87
2018-02-08T07:43:24.137Z,23.63
2018-02-08T07:45:51.737Z,24.60
2018-02-08T07:48:19.552Z,29.92
2018-02-08T07:50:47.217Z,25.33
2018-02-08T07:53:14.873Z,22.97
2018-02-08T07:55:42.606Z,24.75
2018-02-08T07:58:10.272Z,22.37
2018-02-08T08:00:37.905Z,23.58
2018-02-08T08:03:05.561Z,24.20
2018-02-08T08:05:33.209Z,29.23
2018-02-08T08:08:00.833Z,33.80
2018-02-08T08:10:28.496Z,26.40
2018-02-08T08:12:56.764Z,27.23
2018-02-08T08:15:24.424Z,26.37
2018-02-08T08:17:52.808Z,24.43
2018-02-08T08:20:20.476Z,24.13
2018-02-08T08:22:48.144Z,29.77
2018-02-08T08:25:16.307Z,25.80
2018-02-08T08:27:43.996Z,28.40
2018-02-08T08:30:11.657Z,20.92
2018-02-08T08:32:39.285Z,26.97
2018-02-08T08:35:06.951Z,30.50
2018-02-08T08:37:34.582Z,28.90
2018-02-08T08:40:02.805Z,23.80
2018-02-08T08:42:30.460Z,31.13
2018-02-08T08:44:59.005Z,41.20
2018-02-08T08:47:26.665Z,77.93
2018-02-08T08:49:54.284Z,47.03
2018-02-08T08:52:21.953Z,40.53
2018-02-08T08:54:49.570Z,44.42
2018-02-08T08:57:21.502Z,35.10
2018-02-08T08:59:49.270Z,41.27
2018-02-08T09:02:16.889Z,37.00
2018-02-08T09:04:44.550Z,42.77
2018-02-08T09:07:12.177Z,34.37
2018-02-08T09:09:39.793Z,34.15
2018-02-08T09:12:08.190Z,34.43
2018-02-08T09:14:35.849Z,32.45
2018-02-08T09:17:03.500Z,39.30
2018-02-08T09:19:31.718Z,35.57
2018-02-08T09:22:00.142Z,36.37
2018-02-08T09:24:28.505Z,37.47
2018-02-08T09:26:56.939Z,55.10
2018-02-08T09:29:24.625Z,60.65
2018-02-08T09:31:52.257Z,46.57
2018-02-08T09:34:20.155Z,40.10
2018-02-08T09:36:47.946Z,38.95
2018-02-08T09:39:16.220Z,34.33
2018-02-08T09:41:43.908Z,30.00
2018-02-08T09:44:11.529Z,26.27
2018-02-08T09:46:39.757Z,24.33
2018-02-08T09:49:07.412Z,28.90
2018-02-08T09:51:36.453Z,48.97
2018-02-08T09:54:04.436Z,48.20
2018-02-08T09:56:32.114Z,65.90
2018-02-08T09:58:59.916Z,56.22
2018-02-08T10:01:28.333Z,60.57
2018-02-08T10:03:55.988Z,49.30
2018-02-08T10:06:23.605Z,42.33
2018-02-08T10:08:52.026Z,35.30
2018-02-08T10:11:19.677Z,49.77
2018-02-08T10:13:47.288Z,155.70
2018-02-08T10:16:14.942Z,33.90
2018-02-08T10:18:42.570Z,26.17
2018-02-08T10:21:10.235Z,33.75
2018-02-08T10:23:37.891Z,50.92
2018-02-08T10:26:05.501Z,25.73
2018-02-08T10:28:33.152Z,33.60
2018-02-08T10:31:01.576Z,48.70
2018-02-08T10:33:29.195Z,23.07
2018-02-08T10:35:56.843Z,25.30
2018-02-08T10:38:25.964Z,53.37
2018-02-08T10:40:54.346Z,30.53
2018-02-08T10:43:22.001Z,23.50
2018-02-08T10:45:49.617Z,25.77
2018-02-08T10:48:17.386Z,25.20
2018-02-08T10:50:45.032Z,30.17
2018-02-08T10:53:12.656Z,29.63
2018-02-08T10:55:40.313Z,30.88
2018-02-08T10:58:07.925Z,29.95
2018-02-08T11:00:35.569Z,32.63
2018-02-08T11:03:03.246Z,31.27
2018-02-08T11:05:31.181Z,35.10
2018-02-08T11:07:58.797Z,33.85
2018-02-08T11:10:27.216Z,26.83
2018-02-08T11:12:55.063Z,23.73
2018-02-08T11:15:22.719Z,26.47
2018-02-08T11:17:50.628Z,31.00
2018-02-08T11:20:18.293Z,27.40
2018-02-08T11:22:46.064Z,32.40
2018-02-08T11:25:13.713Z,28.67
2018-02-08T11:27:41.367Z,28.47
2018-02-08T11:30:09.014Z,26.23
2018-02-08T11:32:37.233Z,22.97
2018-02-08T11:35:05.185Z,31.90
2018-02-08T11:37:32.805Z,28.97
2018-02-08T11:40:00.457Z,28.23
2018-02-08T11:42:28.113Z,30.83
2018-02-08T11:44:56.014Z,34.00
2018-02-08T11:47:23.660Z,31.23
2018-02-08T11:49:51.282Z,28.17
2018-02-08T11:52:18.903Z,34.70
2018-02-08T11:54:46.553Z,29.90
2018-02-08T11:57:15.137Z,30.65
2018-02-08T11:59:42.767Z,28.20
2018-02-08T12:02:10.385Z,27.20
2018-02-08T12:04:38.041Z,29.95
2018-02-08T12:07:06.221Z,34.30
2018-02-08T12:09:34.173Z,36.80
2018-02-08T12:12:01.829Z,42.07
2018-02-08T12:14:29.884Z,35.70
2018-02-08T12:16:57.493Z,40.20
2018-02-08T12:19:25.155Z,43.15
2018-02-08T12:21:52.809Z,40.87
2018-02-08T12:24:21.238Z,62.17
2018-02-08T12:26:48.851Z,44.07
2018-02-08T12:29:16.457Z,45.33
2018-02-08T12:31:44.104Z,43.80
2018-02-08T12:34:11.741Z,54.50
2018-02-08T12:36:39.408Z,49.43
2018-02-08T12:39:07.022Z,45.53
2018-02-08T12:41:34.676Z,40.08
2018-02-08T12:44:02.292Z,42.90
2018-02-08T12:46:29.956Z,47.10
2018-02-08T12:48:57.640Z,47.40
2018-02-08T12:51:25.257Z,52.33
2018-02-08T12:53:52.880Z,43.90
2018-02-08T12:56:20.558Z,44.03
2018-02-08T12:58:48.819Z,49.05
2018-02-08T13:01:16.441Z,55.77
2018-02-08T13:03:44.094Z,63.03
2018-02-08T13:09:03.149Z,66.65
2018-02-08T13:11:31.526Z,66.30
2018-02-08T13:13:59.176Z,69.40
2018-02-08T13:16:27.771Z,74.40
2018-02-08T13:18:55.388Z,77.70
2018-02-08T13:21:23.059Z,69.20
2018-02-08T13:23:50.675Z,70.33
2018-02-08T13:26:18.294Z,68.00
2018-02-08T13:28:46.716Z,58.70
2018-02-08T13:34:12.612Z,75.50
2018-02-08T13:36:41.929Z,73.62
2018-02-08T13:39:10.946Z,70.30
2018-02-08T13:41:38.592Z,67.60
2018-02-08T13:44:06.246Z,58.47
2018-02-08T13:46:33.917Z,56.10
2018-02-08T13:49:01.576Z,59.83
2018-02-08T13:51:34.722Z,56.80
2018-02-08T13:57:16.413Z,55.05
2018-02-08T13:59:49.740Z,54.37
2018-02-08T14:02:17.377Z,74.25
2018-02-08T14:04:45.051Z,70.10
2018-02-08T14:07:13.478Z,67.30
2018-02-08T14:09:41.765Z,69.77
2018-02-08T14:12:09.869Z,60.00
2018-02-08T14:14:37.535Z,67.40
2018-02-08T14:17:05.958Z,54.47
2018-02-08T14:19:33.601Z,56.70
2018-02-08T14:22:01.219Z,56.45
2018-02-08T14:24:29.444Z,59.20
2018-02-08T14:26:57.765Z,64.70
2018-02-08T14:29:25.384Z,61.28
2018-02-08T14:31:53.040Z,55.57
2018-02-08T14:34:20.664Z,59.53
2018-02-08T14:36:49.315Z,53.83
2018-02-08T14:39:17.533Z,55.27
2018-02-08T14:41:45.961Z,57.13
2018-02-08T14:44:14.189Z,55.60
2018-02-08T14:46:41.869Z,58.70
2018-02-08T14:49:09.484Z,55.05
2018-02-08T14:51:37.140Z,57.80
2018-02-08T14:54:05.568Z,54.27
2018-02-08T14:56:33.176Z,58.03
2018-02-08T14:59:00.841Z,55.37
2018-02-08T15:01:28.453Z,54.43
2018-02-08T15:03:56.101Z,56.00
2018-02-08T15:06:23.740Z,60.60
2018-02-08T15:08:51.370Z,54.25
2018-02-08T15:11:19.024Z,57.60
2018-02-08T15:13:46.681Z,58.42
2018-02-08T15:16:14.335Z,61.20
2018-02-08T15:18:41.945Z,59.00
2018-02-08T15:21:09.604Z,51.22
2018-02-08T15:23:38.246Z,58.57
2018-02-08T15:26:06.096Z,54.43
2018-02-08T15:28:34.668Z,54.67
2018-02-08T15:31:02.456Z,60.80
2018-02-08T15:33:30.068Z,57.50
2018-02-08T15:35:57.717Z,54.38
2018-02-08T15:38:26.141Z,57.20
2018-02-08T15:40:54.370Z,57.17
2018-02-08T15:43:22.022Z,57.85
2018-02-08T15:45:49.689Z,57.22
2018-02-08T15:48:18.357Z,59.27
2018-02-08T15:50:45.977Z,61.63
2018-02-08T15:53:13.630Z,57.33
2018-02-08T15:55:42.007Z,56.60
2018-02-08T15:58:09.660Z,59.20
2018-02-08T16:00:37.282Z,58.53
2018-02-08T16:03:04.938Z,56.90
2018-02-08T16:05:33.324Z,61.15
2018-02-08T16:08:01.750Z,52.30
2018-02-08T16:10:29.386Z,59.47
2018-02-08T16:12:57.189Z,57.33
2018-02-08T16:15:25.077Z,58.77
2018-02-08T16:17:52.713Z,54.95
2018-02-08T16:20:20.370Z,56.97
2018-02-08T16:22:48.245Z,57.80
2018-02-08T16:25:15.893Z,62.33
2018-02-08T16:27:43.504Z,59.20
2018-02-08T16:30:11.179Z,60.87
2018-02-08T16:32:38.986Z,55.00
2018-02-08T16:35:06.657Z,62.10
2018-02-08T16:37:34.279Z,63.60
2018-02-08T16:40:01.973Z,59.93
2018-02-08T16:42:29.634Z,65.37
2018-02-08T16:44:57.249Z,59.50
2018-02-08T16:47:25.472Z,66.53
2018-02-08T16:49:53.562Z,58.07
2018-02-08T16:52:21.225Z,52.60
2018-02-08T16:54:48.878Z,66.60
2018-02-08T16:57:17.293Z,61.60
2018-02-08T16:59:45.076Z,52.30
2018-02-08T17:02:12.741Z,54.10
2018-02-08T17:04:40.413Z,57.63
2018-02-08T17:07:08.033Z,58.30
2018-02-08T17:09:35.706Z,57.57
2018-02-08T17:12:03.329Z,65.13
2018-02-08T17:14:30.984Z,62.37
2018-02-08T17:16:59.637Z,55.80
2018-02-08T17:19:28.101Z,61.10
2018-02-08T17:21:55.729Z,62.10
2018-02-08T17:24:23.345Z,66.63
2018-02-08T17:26:51.164Z,61.87
2018-02-08T17:29:19.559Z,69.55
2018-02-08T17:31:47.797Z,66.80
2018-02-08T17:34:15.640Z,60.75
2018-02-08T17:36:43.980Z,58.85
2018-02-08T17:39:11.652Z,57.33
2018-02-08T17:41:39.313Z,63.03
2018-02-08T17:44:06.962Z,66.32
2018-02-08T17:46:34.633Z,55.22
2018-02-08T17:49:02.397Z,63.15
2018-02-08T17:51:30.157Z,63.50
2018-02-08T17:53:57.813Z,56.08
2018-02-08T17:56:25.424Z,61.80
2018-02-08T17:58:54.543Z,70.13
2018-02-08T18:01:22.985Z,56.67
2018-02-08T18:03:51.171Z,56.67
2018-02-08T18:06:18.829Z,66.87
2018-02-08T18:08:46.481Z,62.10
2018-02-08T18:11:14.108Z,59.73
2018-02-08T18:13:42.329Z,60.47
2018-02-08T18:16:09.941Z,60.53
2018-02-08T18:18:37.595Z,66.70
2018-02-08T18:21:05.473Z,65.20
2018-02-08T18:23:33.141Z,65.80
2018-02-08T18:26:01.635Z,55.90
2018-02-08T18:28:30.059Z,67.43
2018-02-08T18:30:58.312Z,68.13
2018-02-08T18:33:26.205Z,64.95
2018-02-08T18:35:53.859Z,71.78
2018-02-08T18:38:21.490Z,63.50
2018-02-08T18:40:49.151Z,70.03
2018-02-08T18:43:17.389Z,68.85
2018-02-08T18:45:45.052Z,69.65
2018-02-08T18:48:13.496Z,69.30
2018-02-08T18:50:41.156Z,68.78
2018-02-08T18:53:08.805Z,66.18
2018-02-08T18:55:36.458Z,69.47
2018-02-08T18:58:04.133Z,67.97
2018-02-08T19:00:31.781Z,71.85
2018-02-08T19:03:00.028Z,75.93
2018-02-08T19:05:27.894Z,77.87
2018-02-08T19:07:55.805Z,69.57
2018-02-08T19:10:23.465Z,83.93
2018-02-08T19:12:51.679Z,68.93
2018-02-08T19:15:19.626Z,77.03
2018-02-08T19:17:47.277Z,77.87
2018-02-08T19:20:15.847Z,74.30
2018-02-08T19:22:43.525Z,77.37
2018-02-08T19:25:11.374Z,78.55
2018-02-08T19:27:39.136Z,82.10
2018-02-08T19:30:06.803Z,75.63
2018-02-08T19:32:34.434Z,74.13
2018-02-08T19:35:02.090Z,78.18
2018-02-08T19:37:30.768Z,76.68
2018-02-08T19:39:58.485Z,71.12
2018-02-08T19:42:27.816Z,77.73
2018-02-08T19:44:56.245Z,69.78
2018-02-08T19:47:24.352Z,76.05
2018-02-08T19:49:51.976Z,73.32
2018-02-08T19:52:19.633Z,71.53
2018-02-08T19:54:47.255Z,76.77
2018-02-08T19:57:15.059Z,69.15
2018-02-08T19:59:42.735Z,72.57
2018-02-08T20:02:10.352Z,71.07
2018-02-08T20:04:38.005Z,71.37
2018-02-08T20:07:05.851Z,67.93
2018-02-08T20:09:34.538Z,71.70
2018-02-08T20:12:02.172Z,65.82
2018-02-08T20:17:26.437Z,71.87
2018-02-08T20:19:59.263Z,69.95
2018-02-08T20:22:30.005Z,69.35
2018-02-08T20:25:02.380Z,74.87
2018-02-08T20:27:32.065Z,73.18
2018-02-08T20:30:01.801Z,74.03
2018-02-08T20:32:31.996Z,67.43
2018-02-08T20:35:02.454Z,70.83
2018-02-08T20:37:30.105Z,68.22
2018-02-08T20:40:03.695Z,75.10
2018-02-08T20:42:39.869Z,72.97
2018-02-08T20:45:07.847Z,73.87
2018-02-08T20:47:35.470Z,71.10
2018-02-08T20:50:04.111Z,72.47
2018-02-08T20:52:31.999Z,77.15
2018-02-08T20:54:59.868Z,71.75
2018-02-08T20:57:28.948Z,72.07
2018-02-08T20:59:58.220Z,76.53
2018-02-08T21:02:27.858Z,76.00
2018-02-08T21:04:57.748Z,73.20
2018-02-08T21:07:27.526Z,78.20
2018-02-08T21:09:57.734Z,78.43
2018-02-08T21:12:27.832Z,69.87
2018-02-08T21:14:57.845Z,70.53
2018-02-08T21:17:27.960Z,73.77
2018-02-08T21:19:55.573Z,72.63
2018-02-08T21:22:24.744Z,83.07
2018-02-08T21:24:54.272Z,69.03
2018-02-08T21:27:23.686Z,78.73
2018-02-08T21:29:53.441Z,75.22
2018-02-08T21:32:21.221Z,78.30
2018-02-08T21:34:49.609Z,82.60
2018-02-08T21:37:20.073Z,73.85
2018-02-08T21:39:50.820Z,78.70
2018-02-08T21:42:21.029Z,77.00
2018-02-08T21:44:50.140Z,77.03
2018-02-08T21:47:18.985Z,71.23
2018-02-08T21:49:46.600Z,70.93
2018-02-08T21:52:14.359Z,75.35
2018-02-08T21:54:43.656Z,73.40
2018-02-08T21:57:13.808Z,76.22
2018-02-08T21:59:46.037Z,68.33
2018-02-08T22:02:13.786Z,73.80
2018-02-08T22:04:41.441Z,77.12
2018-02-08T22:07:09.065Z,71.23
2018-02-08T22:09:36.721Z,75.27
2018-02-08T22:12:05.113Z,72.37
2018-02-08T22:14:32.772Z,85.17
2018-02-08T22:17:00.437Z,72.50
2018-02-08T22:19:28.097Z,79.15
2018-02-08T22:21:55.888Z,75.22
2018-02-08T22:24:23.551Z,73.62
2018-02-08T22:26:51.206Z,81.57
2018-02-08T22:29:18.857Z,68.30
2018-02-08T22:31:47.217Z,71.37
2018-02-08T22:34:14.924Z,70.53
2018-02-08T22:36:42.580Z,80.10
2018-02-08T22:39:10.230Z,73.40
2018-02-08T22:41:37.888Z,75.60
2018-02-08T22:44:05.505Z,82.83
2018-02-08T22:46:33.161Z,78.37
2018-02-08T22:49:01.540Z,69.17
2018-02-08T22:51:29.969Z,76.45
2018-02-08T22:53:57.903Z,79.50
2018-02-08T22:56:26.814Z,82.40
2018-02-08T22:58:54.535Z,75.03
2018-02-08T23:01:22.953Z,85.37
2018-02-08T23:03:51.321Z,83.03
2018-02-08T23:06:18.942Z,76.27
2018-02-08T23:08:47.360Z,79.47
2018-02-08T23:11:15.010Z,82.18
2018-02-08T23:13:42.637Z,77.70
2018-02-08T23:16:10.297Z,75.72
2018-02-08T23:18:39.304Z,77.93
2018-02-08T23:21:07.738Z,77.43
2018-02-08T23:23:35.392Z,78.85
2018-02-08T23:26:03.044Z,79.27
2018-02-08T23:28:30.656Z,72.20
2018-02-08T23:30:59.183Z,86.55
2018-02-08T23:33:26.800Z,73.57
2018-02-08T23:35:55.446Z,74.20
2018-02-08T23:38:23.097Z,76.20
2018-02-08T23:40:50.781Z,79.22
2018-02-08T23:43:19.433Z,82.43
2018-02-08T23:45:47.673Z,84.23
2018-02-08T23:48:15.284Z,77.67
2018-02-08T23:50:42.940Z,75.53
2018-02-08T23:53:10.705Z,84.20
2018-02-08T23:55:39.006Z,91.87
2018-02-08T23:58:06.668Z,75.45
